sensor_id;sensor_type;location;lat;lon;timestamp;temperature;humidity
22288;DHT22;11312;51.464;6.968;2023-10-09T00:02:12;15.00;99.90
22288;DHT22;11312;51.464;6.968;2023-10-09T00:04:40;15.00;99.90
22288;DHT22;11312;51.464;6.968;2023-10-09T00:07:11;15.00;99.90
22288;DHT22;11312;51.464;6.968;2023-10-09T00:09:37;14.90;99.90
22288;DHT22;11312;51.464;6.968;2023-10-09T00:12:14;14.80;99.90
22288;DHT22;11312;51.464;6.968;2023-10-09T00:14:42;14.80;99.90
22288;DHT22;11312;51.464;6.968;2023-10-09T00:17:14;14.90;99.90
22288;DHT22;11312;51.464;6.968;2023-10-09T00:19:40;14.90;99.90
22288;DHT22;11312;51.464;6.968;2023-10-09T00:22:08;15.00;99.90
22288;DHT22;11312;51.464;6.968;2023-10-09T00:24:36;15.00;99.90
22288;DHT22;11312;51.464;6.968;2023-10-09T00:27:10;15.10;99.90
22288;DHT22;11312;51.464;6.968;2023-10-09T00:29:44;15.10;99.90
22288;DHT22;11312;51.464;6.968;2023-10-09T00:32:12;15.20;99.90
22288;DHT22;11312;51.464;6.968;2023-10-09T00:34:53;15.20;99.90
22288;DHT22;11312;51.464;6.968;2023-10-09T00:37:24;15.10;99.90
22288;DHT22;11312;51.464;6.968;2023-10-09T00:39:52;15.10;99.90
22288;DHT22;11312;51.464;6.968;2023-10-09T00:42:24;15.10;99.90
22288;DHT22;11312;51.464;6.968;2023-10-09T00:44:58;15.20;99.90
22288;DHT22;11312;51.464;6.968;2023-10-09T00:47:30;15.20;99.90
22288;DHT22;11312;51.464;6.968;2023-10-09T00:50:03;15.20;99.90
22288;DHT22;11312;51.464;6.968;2023-10-09T00:52:37;15.30;99.90
22288;DHT22;11312;51.464;6.968;2023-10-09T00:55:18;15.30;99.90
22288;DHT22;11312;51.464;6.968;2023-10-09T00:57:54;15.40;99.90
22288;DHT22;11312;51.464;6.968;2023-10-09T01:00:26;15.40;99.90
22288;DHT22;11312;51.464;6.968;2023-10-09T01:03:04;15.40;99.90
22288;DHT22;11312;51.464;6.968;2023-10-09T01:05:51;15.50;99.90
22288;DHT22;11312;51.464;6.968;2023-10-09T01:08:34;15.20;99.90
22288;DHT22;11312;51.464;6.968;2023-10-09T01:11:06;15.30;99.90
22288;DHT22;11312;51.464;6.968;2023-10-09T01:13:36;15.30;99.90
22288;DHT22;11312;51.464;6.968;2023-10-09T01:16:24;15.30;99.90
22288;DHT22;11312;51.464;6.968;2023-10-09T01:18:52;15.30;99.90
22288;DHT22;11312;51.464;6.968;2023-10-09T01:21:19;15.30;99.90
22288;DHT22;11312;51.464;6.968;2023-10-09T01:23:50;15.40;99.90
22288;DHT22;11312;51.464;6.968;2023-10-09T01:29:03;15.40;99.90
22288;DHT22;11312;51.464;6.968;2023-10-09T01:31:29;15.40;99.90
22288;DHT22;11312;51.464;6.968;2023-10-09T01:33:59;15.40;99.90
22288;DHT22;11312;51.464;6.968;2023-10-09T01:36:26;15.40;99.90
22288;DHT22;11312;51.464;6.968;2023-10-09T01:39:01;15.30;99.90
22288;DHT22;11312;51.464;6.968;2023-10-09T01:41:50;15.30;99.90
22288;DHT22;11312;51.464;6.968;2023-10-09T01:44:17;15.30;99.90
22288;DHT22;11312;51.464;6.968;2023-10-09T01:46:44;15.30;99.90
22288;DHT22;11312;51.464;6.968;2023-10-09T01:49:12;15.20;99.90
22288;DHT22;11312;51.464;6.968;2023-10-09T01:51:43;15.10;99.90
22288;DHT22;11312;51.464;6.968;2023-10-09T01:54:08;15.10;99.90
22288;DHT22;11312;51.464;6.968;2023-10-09T01:56:41;15.00;99.90
22288;DHT22;11312;51.464;6.968;2023-10-09T01:59:11;15.00;99.90
22288;DHT22;11312;51.464;6.968;2023-10-09T02:01:37;15.10;99.90
22288;DHT22;11312;51.464;6.968;2023-10-09T02:04:06;15.00;99.90
22288;DHT22;11312;51.464;6.968;2023-10-09T02:06:39;15.00;99.90
22288;DHT22;11312;51.464;6.968;2023-10-09T02:09:05;15.00;99.90
22288;DHT22;11312;51.464;6.968;2023-10-09T02:11:32;15.00;99.90
22288;DHT22;11312;51.464;6.968;2023-10-09T02:14:06;14.90;99.90
22288;DHT22;11312;51.464;6.968;2023-10-09T02:16:45;14.90;99.90
22288;DHT22;11312;51.464;6.968;2023-10-09T02:19:28;15.00;99.90
22288;DHT22;11312;51.464;6.968;2023-10-09T02:22:01;14.90;99.90
22288;DHT22;11312;51.464;6.968;2023-10-09T02:24:37;15.00;99.90
22288;DHT22;11312;51.464;6.968;2023-10-09T02:27:19;15.00;99.90
22288;DHT22;11312;51.464;6.968;2023-10-09T02:30:04;15.10;99.90
22288;DHT22;11312;51.464;6.968;2023-10-09T02:32:50;15.10;99.90
22288;DHT22;11312;51.464;6.968;2023-10-09T02:35:18;15.10;99.90
22288;DHT22;11312;51.464;6.968;2023-10-09T02:37:54;15.20;99.90
22288;DHT22;11312;51.464;6.968;2023-10-09T02:40:19;15.30;99.90
22288;DHT22;11312;51.464;6.968;2023-10-09T02:42:50;15.20;99.90
22288;DHT22;11312;51.464;6.968;2023-10-09T02:45:16;15.20;99.90
22288;DHT22;11312;51.464;6.968;2023-10-09T02:47:44;15.30;99.90
22288;DHT22;11312;51.464;6.968;2023-10-09T02:50:14;15.20;99.90
22288;DHT22;11312;51.464;6.968;2023-10-09T02:52:47;15.20;99.90
22288;DHT22;11312;51.464;6.968;2023-10-09T02:55:18;15.20;99.90
22288;DHT22;11312;51.464;6.968;2023-10-09T02:57:51;15.30;99.90
22288;DHT22;11312;51.464;6.968;2023-10-09T03:00:22;15.30;99.90
22288;DHT22;11312;51.464;6.968;2023-10-09T03:02:55;15.30;99.90
22288;DHT22;11312;51.464;6.968;2023-10-09T03:05:26;15.30;99.90
22288;DHT22;11312;51.464;6.968;2023-10-09T03:07:55;15.20;99.90
22288;DHT22;11312;51.464;6.968;2023-10-09T03:10:24;15.30;99.90
22288;DHT22;11312;51.464;6.968;2023-10-09T03:12:51;15.30;99.90
22288;DHT22;11312;51.464;6.968;2023-10-09T03:15:19;15.40;99.90
22288;DHT22;11312;51.464;6.968;2023-10-09T03:17:46;15.40;99.90
22288;DHT22;11312;51.464;6.968;2023-10-09T03:20:13;15.40;99.90
22288;DHT22;11312;51.464;6.968;2023-10-09T03:22:40;15.50;99.90
22288;DHT22;11312;51.464;6.968;2023-10-09T03:25:07;15.50;99.90
22288;DHT22;11312;51.464;6.968;2023-10-09T03:27:43;15.40;99.90
22288;DHT22;11312;51.464;6.968;2023-10-09T03:30:16;15.50;99.90
22288;DHT22;11312;51.464;6.968;2023-10-09T03:32:51;15.50;99.90
22288;DHT22;11312;51.464;6.968;2023-10-09T03:35:18;15.40;99.90
22288;DHT22;11312;51.464;6.968;2023-10-09T03:37:52;15.50;99.90
22288;DHT22;11312;51.464;6.968;2023-10-09T03:40:18;15.50;99.90
22288;DHT22;11312;51.464;6.968;2023-10-09T03:42:45;15.50;99.90
22288;DHT22;11312;51.464;6.968;2023-10-09T03:45:10;15.50;99.90
22288;DHT22;11312;51.464;6.968;2023-10-09T03:47:51;15.60;99.90
22288;DHT22;11312;51.464;6.968;2023-10-09T03:50:21;15.60;99.90
22288;DHT22;11312;51.464;6.968;2023-10-09T03:53:01;15.60;99.90
22288;DHT22;11312;51.464;6.968;2023-10-09T03:55:28;15.70;99.90
22288;DHT22;11312;51.464;6.968;2023-10-09T03:57:55;15.70;99.90
22288;DHT22;11312;51.464;6.968;2023-10-09T04:00:23;15.70;99.90
22288;DHT22;11312;51.464;6.968;2023-10-09T04:02:56;15.60;99.90
22288;DHT22;11312;51.464;6.968;2023-10-09T04:05:23;15.60;99.90
22288;DHT22;11312;51.464;6.968;2023-10-09T04:07:50;15.60;99.90
22288;DHT22;11312;51.464;6.968;2023-10-09T04:10:19;15.60;99.90
22288;DHT22;11312;51.464;6.968;2023-10-09T04:13:03;15.50;99.90
22288;DHT22;11312;51.464;6.968;2023-10-09T04:15:29;15.60;99.90
22288;DHT22;11312;51.464;6.968;2023-10-09T04:17:56;15.60;99.90
22288;DHT22;11312;51.464;6.968;2023-10-09T04:20:22;15.70;99.90
22288;DHT22;11312;51.464;6.968;2023-10-09T04:22:48;15.70;99.90
22288;DHT22;11312;51.464;6.968;2023-10-09T04:25:17;15.60;99.90
22288;DHT22;11312;51.464;6.968;2023-10-09T04:27:55;15.60;99.90
22288;DHT22;11312;51.464;6.968;2023-10-09T04:30:45;15.70;99.90
22288;DHT22;11312;51.464;6.968;2023-10-09T04:33:21;15.60;99.90
22288;DHT22;11312;51.464;6.968;2023-10-09T04:36:05;15.70;99.90
22288;DHT22;11312;51.464;6.968;2023-10-09T04:38:46;15.70;99.90
22288;DHT22;11312;51.464;6.968;2023-10-09T04:41:40;15.60;99.90
22288;DHT22;11312;51.464;6.968;2023-10-09T04:44:12;15.60;99.90
22288;DHT22;11312;51.464;6.968;2023-10-09T04:46:47;15.70;99.90
22288;DHT22;11312;51.464;6.968;2023-10-09T04:49:51;15.60;99.90
22288;DHT22;11312;51.464;6.968;2023-10-09T04:52:26;15.70;99.90
22288;DHT22;11312;51.464;6.968;2023-10-09T04:54:54;15.70;99.90
22288;DHT22;11312;51.464;6.968;2023-10-09T04:57:38;15.80;99.90
22288;DHT22;11312;51.464;6.968;2023-10-09T05:00:24;15.70;99.90
22288;DHT22;11312;51.464;6.968;2023-10-09T05:02:52;15.70;99.90
22288;DHT22;11312;51.464;6.968;2023-10-09T05:05:26;15.70;99.90
22288;DHT22;11312;51.464;6.968;2023-10-09T05:08:12;15.70;99.90
22288;DHT22;11312;51.464;6.968;2023-10-09T05:10:53;15.80;99.90
22288;DHT22;11312;51.464;6.968;2023-10-09T05:16:22;15.80;99.90
22288;DHT22;11312;51.464;6.968;2023-10-09T05:18:52;15.80;99.90
22288;DHT22;11312;51.464;6.968;2023-10-09T05:21:40;15.80;99.90
22288;DHT22;11312;51.464;6.968;2023-10-09T05:24:09;15.80;99.90
22288;DHT22;11312;51.464;6.968;2023-10-09T05:26:38;15.80;99.90
22288;DHT22;11312;51.464;6.968;2023-10-09T05:32:00;15.70;99.90
22288;DHT22;11312;51.464;6.968;2023-10-09T05:34:26;15.70;99.90
22288;DHT22;11312;51.464;6.968;2023-10-09T05:37:20;15.80;99.90
22288;DHT22;11312;51.464;6.968;2023-10-09T05:39:58;15.80;99.90
22288;DHT22;11312;51.464;6.968;2023-10-09T05:42:31;15.90;99.90
22288;DHT22;11312;51.464;6.968;2023-10-09T05:45:06;15.80;99.90
22288;DHT22;11312;51.464;6.968;2023-10-09T05:47:52;15.80;99.90
22288;DHT22;11312;51.464;6.968;2023-10-09T05:50:32;15.80;99.90
22288;DHT22;11312;51.464;6.968;2023-10-09T05:53:03;15.80;99.90
22288;DHT22;11312;51.464;6.968;2023-10-09T05:55:30;15.70;99.90
22288;DHT22;11312;51.464;6.968;2023-10-09T05:58:14;15.80;99.90
22288;DHT22;11312;51.464;6.968;2023-10-09T06:00:58;15.80;99.90
22288;DHT22;11312;51.464;6.968;2023-10-09T06:03:53;15.70;99.90
22288;DHT22;11312;51.464;6.968;2023-10-09T06:06:29;15.70;99.90
22288;DHT22;11312;51.464;6.968;2023-10-09T06:09:05;15.70;99.90
22288;DHT22;11312;51.464;6.968;2023-10-09T06:11:44;15.80;99.90
22288;DHT22;11312;51.464;6.968;2023-10-09T06:14:24;15.70;99.90
22288;DHT22;11312;51.464;6.968;2023-10-09T06:16:57;15.80;99.90
22288;DHT22;11312;51.464;6.968;2023-10-09T06:19:24;15.70;99.90
22288;DHT22;11312;51.464;6.968;2023-10-09T06:21:59;15.70;99.90
22288;DHT22;11312;51.464;6.968;2023-10-09T06:24:38;15.70;99.90
22288;DHT22;11312;51.464;6.968;2023-10-09T06:27:08;15.70;99.90
22288;DHT22;11312;51.464;6.968;2023-10-09T06:29:37;15.70;99.90
22288;DHT22;11312;51.464;6.968;2023-10-09T06:32:07;15.80;99.90
22288;DHT22;11312;51.464;6.968;2023-10-09T06:34:49;15.80;99.90
22288;DHT22;11312;51.464;6.968;2023-10-09T06:37:21;15.80;99.90
22288;DHT22;11312;51.464;6.968;2023-10-09T06:39:53;15.80;99.90
22288;DHT22;11312;51.464;6.968;2023-10-09T06:42:31;15.80;99.90
22288;DHT22;11312;51.464;6.968;2023-10-09T06:45:07;15.90;99.90
22288;DHT22;11312;51.464;6.968;2023-10-09T06:47:35;15.90;99.90
22288;DHT22;11312;51.464;6.968;2023-10-09T06:50:13;15.90;99.90
22288;DHT22;11312;51.464;6.968;2023-10-09T06:52:48;15.90;99.90
22288;DHT22;11312;51.464;6.968;2023-10-09T06:55:24;15.90;99.90
22288;DHT22;11312;51.464;6.968;2023-10-09T06:58:02;15.90;99.90
22288;DHT22;11312;51.464;6.968;2023-10-09T07:00:44;15.90;99.90
22288;DHT22;11312;51.464;6.968;2023-10-09T07:03:28;15.90;99.90
22288;DHT22;11312;51.464;6.968;2023-10-09T07:06:08;15.90;99.90
22288;DHT22;11312;51.464;6.968;2023-10-09T07:08:53;16.00;99.90
22288;DHT22;11312;51.464;6.968;2023-10-09T07:11:34;16.00;99.90
22288;DHT22;11312;51.464;6.968;2023-10-09T07:14:10;16.00;99.90
22288;DHT22;11312;51.464;6.968;2023-10-09T07:17:03;16.00;99.90
22288;DHT22;11312;51.464;6.968;2023-10-09T07:19:42;16.00;99.90
22288;DHT22;11312;51.464;6.968;2023-10-09T07:22:11;16.00;99.90
22288;DHT22;11312;51.464;6.968;2023-10-09T07:24:52;16.10;99.90
22288;DHT22;11312;51.464;6.968;2023-10-09T07:27:38;16.00;99.90
22288;DHT22;11312;51.464;6.968;2023-10-09T07:30:19;16.10;99.90
22288;DHT22;11312;51.464;6.968;2023-10-09T07:33:04;16.10;99.90
22288;DHT22;11312;51.464;6.968;2023-10-09T07:35:38;16.10;99.90
22288;DHT22;11312;51.464;6.968;2023-10-09T07:38:18;16.20;99.90
22288;DHT22;11312;51.464;6.968;2023-10-09T07:41:03;16.30;99.90
22288;DHT22;11312;51.464;6.968;2023-10-09T07:43:36;16.30;99.90
22288;DHT22;11312;51.464;6.968;2023-10-09T07:46:06;16.30;99.90
22288;DHT22;11312;51.464;6.968;2023-10-09T07:48:50;16.30;99.90
22288;DHT22;11312;51.464;6.968;2023-10-09T07:51:21;16.50;99.90
22288;DHT22;11312;51.464;6.968;2023-10-09T07:53:59;16.50;99.90
22288;DHT22;11312;51.464;6.968;2023-10-09T07:56:38;16.50;99.90
22288;DHT22;11312;51.464;6.968;2023-10-09T07:59:08;16.40;99.90
22288;DHT22;11312;51.464;6.968;2023-10-09T08:01:49;16.30;99.90
22288;DHT22;11312;51.464;6.968;2023-10-09T08:04:26;16.30;99.90
22288;DHT22;11312;51.464;6.968;2023-10-09T08:07:08;16.30;99.90
22288;DHT22;11312;51.464;6.968;2023-10-09T08:09:35;16.40;99.90
22288;DHT22;11312;51.464;6.968;2023-10-09T08:12:15;16.50;99.90
22288;DHT22;11312;51.464;6.968;2023-10-09T08:15:00;16.50;99.90
22288;DHT22;11312;51.464;6.968;2023-10-09T08:17:55;16.50;99.90
22288;DHT22;11312;51.464;6.968;2023-10-09T08:20:36;16.60;99.90
22288;DHT22;11312;51.464;6.968;2023-10-09T08:23:21;16.70;99.90
22288;DHT22;11312;51.464;6.968;2023-10-09T08:26:14;16.70;99.90
22288;DHT22;11312;51.464;6.968;2023-10-09T08:28:44;16.70;99.90
22288;DHT22;11312;51.464;6.968;2023-10-09T08:31:15;16.80;99.90
22288;DHT22;11312;51.464;6.968;2023-10-09T08:34:02;16.70;99.90
22288;DHT22;11312;51.464;6.968;2023-10-09T08:36:29;16.60;99.90
22288;DHT22;11312;51.464;6.968;2023-10-09T08:39:02;16.70;99.90
22288;DHT22;11312;51.464;6.968;2023-10-09T08:41:42;16.70;99.90
22288;DHT22;11312;51.464;6.968;2023-10-09T08:44:12;16.60;99.90
22288;DHT22;11312;51.464;6.968;2023-10-09T08:46:40;16.60;99.90
22288;DHT22;11312;51.464;6.968;2023-10-09T08:49:08;16.60;99.90
22288;DHT22;11312;51.464;6.968;2023-10-09T08:51:36;16.60;99.90
22288;DHT22;11312;51.464;6.968;2023-10-09T08:54:03;16.60;99.90
22288;DHT22;11312;51.464;6.968;2023-10-09T08:56:30;16.60;99.90
22288;DHT22;11312;51.464;6.968;2023-10-09T08:58:57;16.60;99.90
22288;DHT22;11312;51.464;6.968;2023-10-09T09:01:23;16.70;99.90
22288;DHT22;11312;51.464;6.968;2023-10-09T09:03:52;16.70;99.90
22288;DHT22;11312;51.464;6.968;2023-10-09T09:06:21;16.80;99.90
22288;DHT22;11312;51.464;6.968;2023-10-09T09:08:50;16.90;99.90
22288;DHT22;11312;51.464;6.968;2023-10-09T09:11:20;17.00;99.90
22288;DHT22;11312;51.464;6.968;2023-10-09T09:16:29;17.40;99.90
22288;DHT22;11312;51.464;6.968;2023-10-09T09:18:56;17.50;99.90
22288;DHT22;11312;51.464;6.968;2023-10-09T09:21:43;17.70;99.90
22288;DHT22;11312;51.464;6.968;2023-10-09T09:24:13;18.00;99.90
22288;DHT22;11312;51.464;6.968;2023-10-09T09:27:03;18.00;99.90
22288;DHT22;11312;51.464;6.968;2023-10-09T09:32:07;18.30;99.90
22288;DHT22;11312;51.464;6.968;2023-10-09T09:34:53;18.30;99.90
22288;DHT22;11312;51.464;6.968;2023-10-09T09:37:31;18.20;99.90
22288;DHT22;11312;51.464;6.968;2023-10-09T09:40:05;18.10;99.90
22288;DHT22;11312;51.464;6.968;2023-10-09T09:42:50;18.30;99.90
22288;DHT22;11312;51.464;6.968;2023-10-09T09:45:17;18.30;99.90
22288;DHT22;11312;51.464;6.968;2023-10-09T09:47:49;18.20;99.90
22288;DHT22;11312;51.464;6.968;2023-10-09T09:50:20;18.20;99.90
22288;DHT22;11312;51.464;6.968;2023-10-09T09:52:51;18.20;99.90
22288;DHT22;11312;51.464;6.968;2023-10-09T09:55:25;18.20;99.90
22288;DHT22;11312;51.464;6.968;2023-10-09T09:57:57;18.30;99.90
22288;DHT22;11312;51.464;6.968;2023-10-09T10:00:29;18.30;99.90
22288;DHT22;11312;51.464;6.968;2023-10-09T10:03:14;18.40;99.90
22288;DHT22;11312;51.464;6.968;2023-10-09T10:05:44;18.40;99.90
22288;DHT22;11312;51.464;6.968;2023-10-09T10:08:16;18.40;99.90
22288;DHT22;11312;51.464;6.968;2023-10-09T10:10:45;18.70;99.90
22288;DHT22;11312;51.464;6.968;2023-10-09T10:16:10;18.60;99.90
22288;DHT22;11312;51.464;6.968;2023-10-09T10:19:01;18.50;99.90
22288;DHT22;11312;51.464;6.968;2023-10-09T10:21:33;18.60;99.90
22288;DHT22;11312;51.464;6.968;2023-10-09T10:32:55;18.90;99.90
22288;DHT22;11312;51.464;6.968;2023-10-09T10:35:42;19.00;99.90
22288;DHT22;11312;51.464;6.968;2023-10-09T10:38:33;19.00;99.90
22288;DHT22;11312;51.464;6.968;2023-10-09T10:41:13;19.20;99.90
22288;DHT22;11312;51.464;6.968;2023-10-09T10:43:43;19.80;99.90
22288;DHT22;11312;51.464;6.968;2023-10-09T10:46:19;20.00;99.90
22288;DHT22;11312;51.464;6.968;2023-10-09T10:49:05;19.90;99.90
22288;DHT22;11312;51.464;6.968;2023-10-09T10:51:46;19.60;99.90
22288;DHT22;11312;51.464;6.968;2023-10-09T10:54:23;19.60;99.90
22288;DHT22;11312;51.464;6.968;2023-10-09T10:56:53;20.20;99.90
22288;DHT22;11312;51.464;6.968;2023-10-09T10:59:23;20.50;99.90
22288;DHT22;11312;51.464;6.968;2023-10-09T11:01:51;20.50;99.90
22288;DHT22;11312;51.464;6.968;2023-10-09T11:04:28;20.30;99.90
22288;DHT22;11312;51.464;6.968;2023-10-09T11:07:01;20.10;99.90
22288;DHT22;11312;51.464;6.968;2023-10-09T11:12:46;20.20;99.90
22288;DHT22;11312;51.464;6.968;2023-10-09T11:15:29;20.10;99.90
22288;DHT22;11312;51.464;6.968;2023-10-09T11:18:06;20.20;99.90
22288;DHT22;11312;51.464;6.968;2023-10-09T11:20:43;20.10;99.90
22288;DHT22;11312;51.464;6.968;2023-10-09T11:23:22;20.10;99.90
22288;DHT22;11312;51.464;6.968;2023-10-09T11:26:04;20.10;99.90
22288;DHT22;11312;51.464;6.968;2023-10-09T11:29:22;20.30;99.90
22288;DHT22;11312;51.464;6.968;2023-10-09T11:32:16;20.50;99.90
22288;DHT22;11312;51.464;6.968;2023-10-09T11:35:09;20.50;99.90
22288;DHT22;11312;51.464;6.968;2023-10-09T11:37:35;20.60;99.90
22288;DHT22;11312;51.464;6.968;2023-10-09T11:40:31;20.60;99.90
22288;DHT22;11312;51.464;6.968;2023-10-09T11:43:16;20.50;99.90
22288;DHT22;11312;51.464;6.968;2023-10-09T11:45:42;20.70;99.90
22288;DHT22;11312;51.464;6.968;2023-10-09T11:48:20;21.20;99.90
22288;DHT22;11312;51.464;6.968;2023-10-09T11:51:13;21.40;99.90
22288;DHT22;11312;51.464;6.968;2023-10-09T11:53:45;21.30;99.90
22288;DHT22;11312;51.464;6.968;2023-10-09T11:56:23;21.50;99.90
22288;DHT22;11312;51.464;6.968;2023-10-09T11:58:52;21.60;99.90
22288;DHT22;11312;51.464;6.968;2023-10-09T12:01:20;21.60;99.90
22288;DHT22;11312;51.464;6.968;2023-10-09T12:03:47;21.30;99.90
22288;DHT22;11312;51.464;6.968;2023-10-09T12:06:16;21.10;99.90
22288;DHT22;11312;51.464;6.968;2023-10-09T12:08:45;21.10;99.90
22288;DHT22;11312;51.464;6.968;2023-10-09T12:11:13;21.20;99.90
22288;DHT22;11312;51.464;6.968;2023-10-09T12:13:40;21.10;99.90
22288;DHT22;11312;51.464;6.968;2023-10-09T12:16:08;21.30;99.90
22288;DHT22;11312;51.464;6.968;2023-10-09T12:18:37;21.10;99.90
22288;DHT22;11312;51.464;6.968;2023-10-09T12:21:05;21.10;99.90
22288;DHT22;11312;51.464;6.968;2023-10-09T12:23:31;21.00;99.90
22288;DHT22;11312;51.464;6.968;2023-10-09T12:26:04;21.10;99.90
22288;DHT22;11312;51.464;6.968;2023-10-09T12:28:30;21.30;99.90
22288;DHT22;11312;51.464;6.968;2023-10-09T12:30:59;21.40;99.90
22288;DHT22;11312;51.464;6.968;2023-10-09T12:33:28;21.40;99.90
22288;DHT22;11312;51.464;6.968;2023-10-09T12:35:54;21.30;99.90
22288;DHT22;11312;51.464;6.968;2023-10-09T12:38:27;20.90;99.90
22288;DHT22;11312;51.464;6.968;2023-10-09T12:41:06;21.10;99.90
22288;DHT22;11312;51.464;6.968;2023-10-09T12:44:04;21.30;99.90
22288;DHT22;11312;51.464;6.968;2023-10-09T12:46:30;21.10;99.90
22288;DHT22;11312;51.464;6.968;2023-10-09T12:49:02;20.70;99.90
22288;DHT22;11312;51.464;6.968;2023-10-09T12:51:28;20.50;99.90
22288;DHT22;11312;51.464;6.968;2023-10-09T12:53:57;20.60;99.90
22288;DHT22;11312;51.464;6.968;2023-10-09T12:56:26;20.70;99.90
22288;DHT22;11312;51.464;6.968;2023-10-09T12:59:04;20.70;99.90
22288;DHT22;11312;51.464;6.968;2023-10-09T13:01:33;20.90;99.90
22288;DHT22;11312;51.464;6.968;2023-10-09T13:04:14;20.90;99.90
22288;DHT22;11312;51.464;6.968;2023-10-09T13:06:46;20.80;99.90
22288;DHT22;11312;51.464;6.968;2023-10-09T13:09:13;20.80;99.90
22288;DHT22;11312;51.464;6.968;2023-10-09T13:11:40;20.90;99.90
22288;DHT22;11312;51.464;6.968;2023-10-09T13:14:09;20.80;99.90
22288;DHT22;11312;51.464;6.968;2023-10-09T13:16:47;20.80;99.90
22288;DHT22;11312;51.464;6.968;2023-10-09T13:19:16;20.70;99.90
22288;DHT22;11312;51.464;6.968;2023-10-09T13:21:43;20.60;99.90
22288;DHT22;11312;51.464;6.968;2023-10-09T13:24:09;20.60;99.90
22288;DHT22;11312;51.464;6.968;2023-10-09T13:26:49;20.80;99.90
22288;DHT22;11312;51.464;6.968;2023-10-09T13:29:17;21.60;99.90
22288;DHT22;11312;51.464;6.968;2023-10-09T13:31:48;22.10;99.90
22288;DHT22;11312;51.464;6.968;2023-10-09T13:34:14;22.90;99.90
22288;DHT22;11312;51.464;6.968;2023-10-09T13:36:43;22.50;99.90
22288;DHT22;11312;51.464;6.968;2023-10-09T13:39:24;22.10;99.90
22288;DHT22;11312;51.464;6.968;2023-10-09T13:41:52;21.70;99.90
22288;DHT22;11312;51.464;6.968;2023-10-09T13:44:34;21.50;99.90
22288;DHT22;11312;51.464;6.968;2023-10-09T13:47:01;21.20;99.90
22288;DHT22;11312;51.464;6.968;2023-10-09T13:49:28;21.10;99.90
22288;DHT22;11312;51.464;6.968;2023-10-09T13:51:57;20.50;99.90
22288;DHT22;11312;51.464;6.968;2023-10-09T13:54:23;20.50;99.90
22288;DHT22;11312;51.464;6.968;2023-10-09T13:57:01;20.30;99.90
22288;DHT22;11312;51.464;6.968;2023-10-09T13:59:30;20.30;99.90
22288;DHT22;11312;51.464;6.968;2023-10-09T14:01:56;20.00;99.90
22288;DHT22;11312;51.464;6.968;2023-10-09T14:04:25;20.00;99.90
22288;DHT22;11312;51.464;6.968;2023-10-09T14:06:52;19.90;99.90
22288;DHT22;11312;51.464;6.968;2023-10-09T14:09:25;20.00;99.90
22288;DHT22;11312;51.464;6.968;2023-10-09T14:11:58;20.00;99.90
22288;DHT22;11312;51.464;6.968;2023-10-09T14:14:44;20.00;99.90
22288;DHT22;11312;51.464;6.968;2023-10-09T14:17:14;19.90;99.90
22288;DHT22;11312;51.464;6.968;2023-10-09T14:19:46;19.90;99.90
22288;DHT22;11312;51.464;6.968;2023-10-09T14:22:16;19.90;99.90
22288;DHT22;11312;51.464;6.968;2023-10-09T14:24:46;19.80;99.90
22288;DHT22;11312;51.464;6.968;2023-10-09T14:27:13;19.80;99.90
22288;DHT22;11312;51.464;6.968;2023-10-09T14:29:45;19.70;99.90
22288;DHT22;11312;51.464;6.968;2023-10-09T14:32:11;19.70;99.90
22288;DHT22;11312;51.464;6.968;2023-10-09T14:34:43;19.60;99.90
22288;DHT22;11312;51.464;6.968;2023-10-09T14:37:13;19.60;99.90
22288;DHT22;11312;51.464;6.968;2023-10-09T14:39:43;19.60;99.90
22288;DHT22;11312;51.464;6.968;2023-10-09T14:42:14;19.60;99.90
22288;DHT22;11312;51.464;6.968;2023-10-09T14:44:41;19.60;99.90
22288;DHT22;11312;51.464;6.968;2023-10-09T14:47:07;19.60;99.90
22288;DHT22;11312;51.464;6.968;2023-10-09T14:49:36;19.60;99.90
22288;DHT22;11312;51.464;6.968;2023-10-09T14:52:09;19.60;99.90
22288;DHT22;11312;51.464;6.968;2023-10-09T14:54:38;19.60;99.90
22288;DHT22;11312;51.464;6.968;2023-10-09T14:57:04;19.50;99.90
22288;DHT22;11312;51.464;6.968;2023-10-09T14:59:34;19.50;99.90
22288;DHT22;11312;51.464;6.968;2023-10-09T15:02:01;19.50;99.90
22288;DHT22;11312;51.464;6.968;2023-10-09T15:04:26;19.50;99.90
22288;DHT22;11312;51.464;6.968;2023-10-09T15:06:52;19.50;99.90
22288;DHT22;11312;51.464;6.968;2023-10-09T15:09:18;19.50;99.90
22288;DHT22;11312;51.464;6.968;2023-10-09T15:11:51;19.40;99.90
22288;DHT22;11312;51.464;6.968;2023-10-09T15:14:17;19.40;99.90
22288;DHT22;11312;51.464;6.968;2023-10-09T15:16:47;19.40;99.90
22288;DHT22;11312;51.464;6.968;2023-10-09T15:19:13;19.50;99.90
22288;DHT22;11312;51.464;6.968;2023-10-09T15:21:40;19.40;99.90
22288;DHT22;11312;51.464;6.968;2023-10-09T15:26:41;19.40;99.90
22288;DHT22;11312;51.464;6.968;2023-10-09T15:29:08;19.40;99.90
22288;DHT22;11312;51.464;6.968;2023-10-09T15:31:36;19.40;99.90
22288;DHT22;11312;51.464;6.968;2023-10-09T15:34:02;19.40;99.90
22288;DHT22;11312;51.464;6.968;2023-10-09T15:36:28;19.40;99.90
22288;DHT22;11312;51.464;6.968;2023-10-09T15:38:56;19.40;99.90
22288;DHT22;11312;51.464;6.968;2023-10-09T15:41:28;19.30;99.90
22288;DHT22;11312;51.464;6.968;2023-10-09T15:43:58;19.30;99.90
22288;DHT22;11312;51.464;6.968;2023-10-09T15:46:24;19.30;99.90
22288;DHT22;11312;51.464;6.968;2023-10-09T15:48:51;19.30;99.90
22288;DHT22;11312;51.464;6.968;2023-10-09T15:51:19;19.30;99.90
22288;DHT22;11312;51.464;6.968;2023-10-09T15:53:45;19.30;99.90
22288;DHT22;11312;51.464;6.968;2023-10-09T15:56:12;19.20;99.90
22288;DHT22;11312;51.464;6.968;2023-10-09T15:58:40;19.40;99.90
22288;DHT22;11312;51.464;6.968;2023-10-09T16:01:12;19.30;99.90
22288;DHT22;11312;51.464;6.968;2023-10-09T16:03:42;19.40;99.90
22288;DHT22;11312;51.464;6.968;2023-10-09T16:06:10;19.30;99.90
22288;DHT22;11312;51.464;6.968;2023-10-09T16:08:43;19.40;99.90
22288;DHT22;11312;51.464;6.968;2023-10-09T16:11:11;19.40;99.90
22288;DHT22;11312;51.464;6.968;2023-10-09T16:13:38;19.40;99.90
22288;DHT22;11312;51.464;6.968;2023-10-09T16:16:05;19.30;99.90
22288;DHT22;11312;51.464;6.968;2023-10-09T16:18:34;19.30;99.90
22288;DHT22;11312;51.464;6.968;2023-10-09T16:21:00;19.20;99.90
22288;DHT22;11312;51.464;6.968;2023-10-09T16:23:31;19.30;99.90
22288;DHT22;11312;51.464;6.968;2023-10-09T16:25:56;19.20;99.90
22288;DHT22;11312;51.464;6.968;2023-10-09T16:28:22;19.10;99.90
22288;DHT22;11312;51.464;6.968;2023-10-09T16:30:48;19.10;99.90
22288;DHT22;11312;51.464;6.968;2023-10-09T16:33:14;19.10;99.90
22288;DHT22;11312;51.464;6.968;2023-10-09T16:35:41;19.10;99.90
22288;DHT22;11312;51.464;6.968;2023-10-09T16:38:10;19.10;99.90
22288;DHT22;11312;51.464;6.968;2023-10-09T16:40:39;19.10;99.90